sensor_id;sensor_type;location;lat;lon;timestamp;temperature;humidity
14192;DHT22;7177;48.572;7.838;2022-12-07T00:02:24;4.30;99.90
14192;DHT22;7177;48.572;7.838;2022-12-07T00:04:50;4.30;99.90
14192;DHT22;7177;48.572;7.838;2022-12-07T00:07:15;4.30;99.90
14192;DHT22;7177;48.572;7.838;2022-12-07T00:09:41;4.30;99.90
14192;DHT22;7177;48.572;7.838;2022-12-07T00:12:07;4.30;99.90
14192;DHT22;7177;48.572;7.838;2022-12-07T00:14:33;4.30;99.90
14192;DHT22;7177;48.572;7.838;2022-12-07T00:16:58;4.20;99.90
14192;DHT22;7177;48.572;7.838;2022-12-07T00:19:24;4.20;99.90
14192;DHT22;7177;48.572;7.838;2022-12-07T00:21:50;4.20;99.90
14192;DHT22;7177;48.572;7.838;2022-12-07T00:24:15;4.20;99.90
14192;DHT22;7177;48.572;7.838;2022-12-07T00:26:42;4.20;99.90
14192;DHT22;7177;48.572;7.838;2022-12-07T00:29:16;4.20;99.90
14192;DHT22;7177;48.572;7.838;2022-12-07T00:31:42;4.20;99.90
14192;DHT22;7177;48.572;7.838;2022-12-07T00:34:16;4.20;99.90
14192;DHT22;7177;48.572;7.838;2022-12-07T00:36:42;4.20;99.90
14192;DHT22;7177;48.572;7.838;2022-12-07T00:39:07;4.20;99.90
14192;DHT22;7177;48.572;7.838;2022-12-07T00:41:34;4.20;99.90
14192;DHT22;7177;48.572;7.838;2022-12-07T00:44:00;4.20;99.90
14192;DHT22;7177;48.572;7.838;2022-12-07T00:46:26;4.20;99.90
14192;DHT22;7177;48.572;7.838;2022-12-07T00:48:52;4.20;99.90
14192;DHT22;7177;48.572;7.838;2022-12-07T00:51:20;4.10;99.90
14192;DHT22;7177;48.572;7.838;2022-12-07T00:53:46;4.20;99.90
14192;DHT22;7177;48.572;7.838;2022-12-07T00:56:16;4.10;99.90
14192;DHT22;7177;48.572;7.838;2022-12-07T00:58:42;4.10;99.90
14192;DHT22;7177;48.572;7.838;2022-12-07T01:01:09;4.10;99.90
14192;DHT22;7177;48.572;7.838;2022-12-07T01:03:35;4.10;99.90
14192;DHT22;7177;48.572;7.838;2022-12-07T01:06:01;4.10;99.90
14192;DHT22;7177;48.572;7.838;2022-12-07T01:08:27;4.20;99.90
14192;DHT22;7177;48.572;7.838;2022-12-07T01:11:07;4.20;99.90
14192;DHT22;7177;48.572;7.838;2022-12-07T01:13:34;4.20;99.90
14192;DHT22;7177;48.572;7.838;2022-12-07T01:16:02;4.20;99.90
14192;DHT22;7177;48.572;7.838;2022-12-07T01:18:29;4.20;99.90
14192;DHT22;7177;48.572;7.838;2022-12-07T01:21:25;4.20;99.90
14192;DHT22;7177;48.572;7.838;2022-12-07T01:23:52;4.30;99.90
14192;DHT22;7177;48.572;7.838;2022-12-07T01:26:20;4.20;99.90
14192;DHT22;7177;48.572;7.838;2022-12-07T01:28:46;4.30;99.90
14192;DHT22;7177;48.572;7.838;2022-12-07T01:31:14;4.20;99.90
14192;DHT22;7177;48.572;7.838;2022-12-07T01:33:41;4.20;99.90
14192;DHT22;7177;48.572;7.838;2022-12-07T01:36:18;4.20;99.90
14192;DHT22;7177;48.572;7.838;2022-12-07T01:38:45;4.30;99.90
14192;DHT22;7177;48.572;7.838;2022-12-07T01:41:11;4.30;99.90
14192;DHT22;7177;48.572;7.838;2022-12-07T01:44:06;4.20;99.90
14192;DHT22;7177;48.572;7.838;2022-12-07T01:46:22;4.20;99.90
14192;DHT22;7177;48.572;7.838;2022-12-07T01:48:48;4.20;99.90
14192;DHT22;7177;48.572;7.838;2022-12-07T01:51:14;4.20;99.90
14192;DHT22;7177;48.572;7.838;2022-12-07T01:53:43;4.20;99.90
14192;DHT22;7177;48.572;7.838;2022-12-07T01:56:12;4.20;99.90
14192;DHT22;7177;48.572;7.838;2022-12-07T01:58:40;4.20;99.90
14192;DHT22;7177;48.572;7.838;2022-12-07T02:01:05;4.20;99.90
14192;DHT22;7177;48.572;7.838;2022-12-07T02:03:41;4.20;99.90
14192;DHT22;7177;48.572;7.838;2022-12-07T02:06:08;4.20;99.90
14192;DHT22;7177;48.572;7.838;2022-12-07T02:08:34;4.20;99.90
14192;DHT22;7177;48.572;7.838;2022-12-07T02:11:02;4.20;99.90
14192;DHT22;7177;48.572;7.838;2022-12-07T02:13:31;4.30;99.90
14192;DHT22;7177;48.572;7.838;2022-12-07T02:16:25;4.30;99.90
14192;DHT22;7177;48.572;7.838;2022-12-07T02:27:28;5.20;99.90
14192;DHT22;7177;48.572;7.838;2022-12-07T02:30:00;4.30;99.90
14192;DHT22;7177;48.572;7.838;2022-12-07T02:32:39;4.30;99.90
14192;DHT22;7177;48.572;7.838;2022-12-07T02:35:28;4.30;99.90
14192;DHT22;7177;48.572;7.838;2022-12-07T02:40:33;4.30;99.90
14192;DHT22;7177;48.572;7.838;2022-12-07T02:43:14;4.30;99.90
14192;DHT22;7177;48.572;7.838;2022-12-07T02:45:42;4.30;99.90
14192;DHT22;7177;48.572;7.838;2022-12-07T02:48:10;4.30;99.90
14192;DHT22;7177;48.572;7.838;2022-12-07T02:50:36;4.20;99.90
14192;DHT22;7177;48.572;7.838;2022-12-07T02:53:02;4.20;99.90
14192;DHT22;7177;48.572;7.838;2022-12-07T02:55:34;4.20;99.90
14192;DHT22;7177;48.572;7.838;2022-12-07T02:58:31;4.20;99.90
14192;DHT22;7177;48.572;7.838;2022-12-07T03:01:18;4.20;99.90
14192;DHT22;7177;48.572;7.838;2022-12-07T03:03:50;4.10;99.90
14192;DHT22;7177;48.572;7.838;2022-12-07T03:06:25;4.00;99.90
14192;DHT22;7177;48.572;7.838;2022-12-07T03:12:11;3.80;99.90
14192;DHT22;7177;48.572;7.838;2022-12-07T03:14:46;3.70;99.90
14192;DHT22;7177;48.572;7.838;2022-12-07T03:17:19;3.60;99.90
14192;DHT22;7177;48.572;7.838;2022-12-07T03:19:46;3.60;99.90
14192;DHT22;7177;48.572;7.838;2022-12-07T03:22:14;3.50;99.90
14192;DHT22;7177;48.572;7.838;2022-12-07T03:24:55;3.40;99.90
14192;DHT22;7177;48.572;7.838;2022-12-07T03:27:27;3.40;99.90
14192;DHT22;7177;48.572;7.838;2022-12-07T03:30:04;3.30;99.90
14192;DHT22;7177;48.572;7.838;2022-12-07T03:32:43;3.30;99.90
14192;DHT22;7177;48.572;7.838;2022-12-07T03:35:27;3.20;99.90
14192;DHT22;7177;48.572;7.838;2022-12-07T03:37:57;3.30;99.90
14192;DHT22;7177;48.572;7.838;2022-12-07T03:40:48;3.20;99.90
14192;DHT22;7177;48.572;7.838;2022-12-07T03:43:16;3.20;99.90
14192;DHT22;7177;48.572;7.838;2022-12-07T03:48:34;3.20;99.90
14192;DHT22;7177;48.572;7.838;2022-12-07T03:51:15;3.30;99.90
14192;DHT22;7177;48.572;7.838;2022-12-07T03:53:48;3.30;99.90
14192;DHT22;7177;48.572;7.838;2022-12-07T03:56:17;3.30;99.90
14192;DHT22;7177;48.572;7.838;2022-12-07T03:58:43;3.40;99.90
14192;DHT22;7177;48.572;7.838;2022-12-07T04:01:10;3.40;99.90
14192;DHT22;7177;48.572;7.838;2022-12-07T04:03:36;3.50;99.90
14192;DHT22;7177;48.572;7.838;2022-12-07T04:06:02;3.40;99.90
14192;DHT22;7177;48.572;7.838;2022-12-07T04:08:27;3.40;99.90
14192;DHT22;7177;48.572;7.838;2022-12-07T04:10:53;3.40;99.90
14192;DHT22;7177;48.572;7.838;2022-12-07T04:13:18;3.40;99.90
14192;DHT22;7177;48.572;7.838;2022-12-07T04:15:44;3.40;99.90
14192;DHT22;7177;48.572;7.838;2022-12-07T04:18:09;3.40;99.90
14192;DHT22;7177;48.572;7.838;2022-12-07T04:20:35;3.40;99.90
14192;DHT22;7177;48.572;7.838;2022-12-07T04:23:01;3.40;99.90
14192;DHT22;7177;48.572;7.838;2022-12-07T04:25:26;3.40;99.90
14192;DHT22;7177;48.572;7.838;2022-12-07T04:27:52;3.40;99.90
14192;DHT22;7177;48.572;7.838;2022-12-07T04:30:19;3.30;99.90
14192;DHT22;7177;48.572;7.838;2022-12-07T04:32:44;3.30;99.90
14192;DHT22;7177;48.572;7.838;2022-12-07T04:35:10;3.30;99.90
14192;DHT22;7177;48.572;7.838;2022-12-07T04:37:35;3.30;99.90
14192;DHT22;7177;48.572;7.838;2022-12-07T04:40:01;3.30;99.90
14192;DHT22;7177;48.572;7.838;2022-12-07T04:42:27;3.30;99.90
14192;DHT22;7177;48.572;7.838;2022-12-07T04:44:53;3.30;99.90
14192;DHT22;7177;48.572;7.838;2022-12-07T04:47:20;3.30;99.90
14192;DHT22;7177;48.572;7.838;2022-12-07T04:49:46;3.30;99.90
14192;DHT22;7177;48.572;7.838;2022-12-07T04:52:12;3.30;99.90
14192;DHT22;7177;48.572;7.838;2022-12-07T04:54:37;3.30;99.90
14192;DHT22;7177;48.572;7.838;2022-12-07T04:57:03;3.20;99.90
14192;DHT22;7177;48.572;7.838;2022-12-07T04:59:28;3.20;99.90
14192;DHT22;7177;48.572;7.838;2022-12-07T05:01:54;3.10;99.90
14192;DHT22;7177;48.572;7.838;2022-12-07T05:04:19;3.00;99.90
14192;DHT22;7177;48.572;7.838;2022-12-07T05:06:45;3.40;99.90
14192;DHT22;7177;48.572;7.838;2022-12-07T05:09:10;3.70;99.90
14192;DHT22;7177;48.572;7.838;2022-12-07T05:11:36;3.80;99.90
14192;DHT22;7177;48.572;7.838;2022-12-07T05:16:35;3.90;99.90
14192;DHT22;7177;48.572;7.838;2022-12-07T05:19:00;4.00;99.90
14192;DHT22;7177;48.572;7.838;2022-12-07T05:21:26;3.90;99.90
14192;DHT22;7177;48.572;7.838;2022-12-07T05:23:52;3.80;99.90
14192;DHT22;7177;48.572;7.838;2022-12-07T05:26:17;3.70;99.90
14192;DHT22;7177;48.572;7.838;2022-12-07T05:28:43;3.70;99.90
14192;DHT22;7177;48.572;7.838;2022-12-07T05:31:09;3.70;99.90
14192;DHT22;7177;48.572;7.838;2022-12-07T05:33:34;3.70;99.90
14192;DHT22;7177;48.572;7.838;2022-12-07T05:36:00;3.60;99.90
14192;DHT22;7177;48.572;7.838;2022-12-07T05:38:33;3.50;99.90
14192;DHT22;7177;48.572;7.838;2022-12-07T05:41:03;3.40;99.90
14192;DHT22;7177;48.572;7.838;2022-12-07T05:43:30;3.30;99.90
14192;DHT22;7177;48.572;7.838;2022-12-07T05:45:55;3.20;99.90
14192;DHT22;7177;48.572;7.838;2022-12-07T05:48:22;3.30;99.90
14192;DHT22;7177;48.572;7.838;2022-12-07T05:50:48;3.20;99.90
14192;DHT22;7177;48.572;7.838;2022-12-07T05:53:14;3.20;99.90
14192;DHT22;7177;48.572;7.838;2022-12-07T05:55:40;3.10;99.90
14192;DHT22;7177;48.572;7.838;2022-12-07T05:58:05;3.10;99.90
14192;DHT22;7177;48.572;7.838;2022-12-07T06:00:49;3.10;99.90
14192;DHT22;7177;48.572;7.838;2022-12-07T06:03:15;3.10;99.90
14192;DHT22;7177;48.572;7.838;2022-12-07T06:05:40;3.20;99.90
14192;DHT22;7177;48.572;7.838;2022-12-07T06:08:07;3.20;99.90
14192;DHT22;7177;48.572;7.838;2022-12-07T06:10:32;3.20;99.90
14192;DHT22;7177;48.572;7.838;2022-12-07T06:12:58;3.20;99.90
14192;DHT22;7177;48.572;7.838;2022-12-07T06:15:23;3.20;99.90
14192;DHT22;7177;48.572;7.838;2022-12-07T06:17:49;3.20;99.90
14192;DHT22;7177;48.572;7.838;2022-12-07T06:20:14;3.20;99.90
14192;DHT22;7177;48.572;7.838;2022-12-07T06:22:40;3.20;99.90
14192;DHT22;7177;48.572;7.838;2022-12-07T06:25:06;3.20;99.90
14192;DHT22;7177;48.572;7.838;2022-12-07T06:27:32;3.20;99.90
14192;DHT22;7177;48.572;7.838;2022-12-07T06:29:58;3.20;99.90
14192;DHT22;7177;48.572;7.838;2022-12-07T06:32:24;3.10;99.90
14192;DHT22;7177;48.572;7.838;2022-12-07T06:34:49;3.10;99.90
14192;DHT22;7177;48.572;7.838;2022-12-07T06:37:15;3.10;99.90
14192;DHT22;7177;48.572;7.838;2022-12-07T06:39:40;3.10;99.90
14192;DHT22;7177;48.572;7.838;2022-12-07T06:42:06;3.10;99.90
14192;DHT22;7177;48.572;7.838;2022-12-07T06:44:31;3.10;99.90
14192;DHT22;7177;48.572;7.838;2022-12-07T06:46:58;3.10;99.90
14192;DHT22;7177;48.572;7.838;2022-12-07T06:49:23;3.10;99.90
14192;DHT22;7177;48.572;7.838;2022-12-07T06:51:49;3.10;99.90
14192;DHT22;7177;48.572;7.838;2022-12-07T06:54:15;3.10;99.90
14192;DHT22;7177;48.572;7.838;2022-12-07T06:56:41;3.10;99.90
14192;DHT22;7177;48.572;7.838;2022-12-07T06:59:07;3.00;99.90
14192;DHT22;7177;48.572;7.838;2022-12-07T07:01:34;2.90;99.90
14192;DHT22;7177;48.572;7.838;2022-12-07T07:04:00;2.80;99.90
14192;DHT22;7177;48.572;7.838;2022-12-07T07:06:26;2.80;99.90
14192;DHT22;7177;48.572;7.838;2022-12-07T07:08:51;2.80;99.90
14192;DHT22;7177;48.572;7.838;2022-12-07T07:11:17;3.10;99.90
14192;DHT22;7177;48.572;7.838;2022-12-07T07:13:44;3.20;99.90
14192;DHT22;7177;48.572;7.838;2022-12-07T07:16:09;3.20;99.90
14192;DHT22;7177;48.572;7.838;2022-12-07T07:18:35;3.10;99.90
14192;DHT22;7177;48.572;7.838;2022-12-07T07:21:01;3.10;99.90
14192;DHT22;7177;48.572;7.838;2022-12-07T07:23:27;3.00;99.90
14192;DHT22;7177;48.572;7.838;2022-12-07T07:25:53;3.00;99.90
14192;DHT22;7177;48.572;7.838;2022-12-07T07:28:18;3.10;99.90
14192;DHT22;7177;48.572;7.838;2022-12-07T07:30:44;3.10;99.90
14192;DHT22;7177;48.572;7.838;2022-12-07T07:33:10;3.00;99.90
14192;DHT22;7177;48.572;7.838;2022-12-07T07:35:36;3.00;99.90
14192;DHT22;7177;48.572;7.838;2022-12-07T07:38:01;2.90;99.90
14192;DHT22;7177;48.572;7.838;2022-12-07T07:40:28;2.90;99.90
14192;DHT22;7177;48.572;7.838;2022-12-07T07:42:57;2.90;99.90
14192;DHT22;7177;48.572;7.838;2022-12-07T07:45:24;2.80;99.90
14192;DHT22;7177;48.572;7.838;2022-12-07T07:47:50;2.80;99.90
14192;DHT22;7177;48.572;7.838;2022-12-07T07:50:16;2.80;99.90
14192;DHT22;7177;48.572;7.838;2022-12-07T07:52:42;2.90;99.90
14192;DHT22;7177;48.572;7.838;2022-12-07T07:55:08;2.90;99.90
14192;DHT22;7177;48.572;7.838;2022-12-07T07:57:35;2.90;99.90
14192;DHT22;7177;48.572;7.838;2022-12-07T08:00:05;2.90;99.90
14192;DHT22;7177;48.572;7.838;2022-12-07T08:02:31;3.00;99.90
14192;DHT22;7177;48.572;7.838;2022-12-07T08:04:56;3.00;99.90
14192;DHT22;7177;48.572;7.838;2022-12-07T08:07:22;3.00;99.90
14192;DHT22;7177;48.572;7.838;2022-12-07T08:09:47;3.00;99.90
14192;DHT22;7177;48.572;7.838;2022-12-07T08:12:13;3.00;99.90
14192;DHT22;7177;48.572;7.838;2022-12-07T08:14:39;3.00;99.90
14192;DHT22;7177;48.572;7.838;2022-12-07T08:17:04;3.00;99.90
14192;DHT22;7177;48.572;7.838;2022-12-07T08:19:30;3.00;99.90
14192;DHT22;7177;48.572;7.838;2022-12-07T08:21:56;3.00;99.90
14192;DHT22;7177;48.572;7.838;2022-12-07T08:24:22;3.00;99.90
14192;DHT22;7177;48.572;7.838;2022-12-07T08:26:47;3.10;99.90
14192;DHT22;7177;48.572;7.838;2022-12-07T08:29:15;3.10;99.90
14192;DHT22;7177;48.572;7.838;2022-12-07T08:31:40;3.10;99.90
14192;DHT22;7177;48.572;7.838;2022-12-07T08:34:06;3.20;99.90
14192;DHT22;7177;48.572;7.838;2022-12-07T08:36:31;3.20;99.90
14192;DHT22;7177;48.572;7.838;2022-12-07T08:38:57;3.20;99.90
14192;DHT22;7177;48.572;7.838;2022-12-07T08:41:22;3.20;99.90
14192;DHT22;7177;48.572;7.838;2022-12-07T08:43:48;3.20;99.90
14192;DHT22;7177;48.572;7.838;2022-12-07T08:46:40;3.30;99.90
14192;DHT22;7177;48.572;7.838;2022-12-07T08:49:19;3.40;99.90
14192;DHT22;7177;48.572;7.838;2022-12-07T08:51:46;3.40;99.90
14192;DHT22;7177;48.572;7.838;2022-12-07T08:54:14;3.50;99.90
14192;DHT22;7177;48.572;7.838;2022-12-07T08:56:42;3.50;99.90
14192;DHT22;7177;48.572;7.838;2022-12-07T08:59:08;3.50;99.90
14192;DHT22;7177;48.572;7.838;2022-12-07T09:01:34;3.60;99.90
14192;DHT22;7177;48.572;7.838;2022-12-07T09:03:59;3.50;99.90
14192;DHT22;7177;48.572;7.838;2022-12-07T09:06:25;3.50;99.90
14192;DHT22;7177;48.572;7.838;2022-12-07T09:08:54;3.60;99.90
14192;DHT22;7177;48.572;7.838;2022-12-07T09:11:21;3.60;99.90
14192;DHT22;7177;48.572;7.838;2022-12-07T09:13:47;3.60;99.90
14192;DHT22;7177;48.572;7.838;2022-12-07T09:16:13;3.60;99.90
14192;DHT22;7177;48.572;7.838;2022-12-07T09:18:38;3.60;99.90
14192;DHT22;7177;48.572;7.838;2022-12-07T09:21:04;3.60;99.90
14192;DHT22;7177;48.572;7.838;2022-12-07T09:23:30;3.50;99.90
14192;DHT22;7177;48.572;7.838;2022-12-07T09:25:59;3.50;99.90
14192;DHT22;7177;48.572;7.838;2022-12-07T09:28:25;3.50;99.90
14192;DHT22;7177;48.572;7.838;2022-12-07T09:30:51;3.50;99.90
14192;DHT22;7177;48.572;7.838;2022-12-07T09:33:16;3.50;99.90
14192;DHT22;7177;48.572;7.838;2022-12-07T09:35:49;3.60;99.90
14192;DHT22;7177;48.572;7.838;2022-12-07T09:38:15;3.70;99.90
14192;DHT22;7177;48.572;7.838;2022-12-07T09:40:41;3.80;99.90
14192;DHT22;7177;48.572;7.838;2022-12-07T09:43:22;3.80;99.90
14192;DHT22;7177;48.572;7.838;2022-12-07T09:45:51;3.90;99.90
14192;DHT22;7177;48.572;7.838;2022-12-07T09:48:22;3.90;99.90
14192;DHT22;7177;48.572;7.838;2022-12-07T09:50:51;4.00;99.90
14192;DHT22;7177;48.572;7.838;2022-12-07T09:53:25;4.00;99.90
14192;DHT22;7177;48.572;7.838;2022-12-07T09:55:52;4.10;99.90
14192;DHT22;7177;48.572;7.838;2022-12-07T09:58:26;4.10;99.90
14192;DHT22;7177;48.572;7.838;2022-12-07T10:03:39;4.20;99.90
14192;DHT22;7177;48.572;7.838;2022-12-07T10:06:06;4.30;99.90
14192;DHT22;7177;48.572;7.838;2022-12-07T10:08:32;4.30;99.90
14192;DHT22;7177;48.572;7.838;2022-12-07T10:10:59;4.30;99.90
14192;DHT22;7177;48.572;7.838;2022-12-07T10:13:37;4.40;99.90
14192;DHT22;7177;48.572;7.838;2022-12-07T10:16:03;4.50;99.90
14192;DHT22;7177;48.572;7.838;2022-12-07T10:23:58;4.70;99.90
14192;DHT22;7177;48.572;7.838;2022-12-07T10:26:40;4.70;99.90
14192;DHT22;7177;48.572;7.838;2022-12-07T10:29:14;4.70;99.90
14192;DHT22;7177;48.572;7.838;2022-12-07T10:31:41;4.80;99.90
14192;DHT22;7177;48.572;7.838;2022-12-07T10:34:30;4.80;99.90
14192;DHT22;7177;48.572;7.838;2022-12-07T10:42:21;5.10;99.90
14192;DHT22;7177;48.572;7.838;2022-12-07T10:44:48;5.20;99.90
14192;DHT22;7177;48.572;7.838;2022-12-07T10:50:01;6.00;99.90
14192;DHT22;7177;48.572;7.838;2022-12-07T10:52:45;6.80;99.90
14192;DHT22;7177;48.572;7.838;2022-12-07T10:55:33;7.50;99.90
14192;DHT22;7177;48.572;7.838;2022-12-07T10:58:15;7.60;99.90
14192;DHT22;7177;48.572;7.838;2022-12-07T11:01:11;7.40;99.90
14192;DHT22;7177;48.572;7.838;2022-12-07T11:04:19;7.30;99.90
14192;DHT22;7177;48.572;7.838;2022-12-07T11:17:47;6.20;99.90
14192;DHT22;7177;48.572;7.838;2022-12-07T11:23:12;5.90;99.90
14192;DHT22;7177;48.572;7.838;2022-12-07T11:28:40;5.80;99.90
14192;DHT22;7177;48.572;7.838;2022-12-07T11:31:37;5.90;99.90
14192;DHT22;7177;48.572;7.838;2022-12-07T11:36:56;6.00;99.90
14192;DHT22;7177;48.572;7.838;2022-12-07T11:41:52;6.10;99.90
14192;DHT22;7177;48.572;7.838;2022-12-07T11:44:52;6.10;99.90
14192;DHT22;7177;48.572;7.838;2022-12-07T11:53:03;6.20;99.90
14192;DHT22;7177;48.572;7.838;2022-12-07T11:58:33;6.30;99.90
14192;DHT22;7177;48.572;7.838;2022-12-07T12:03:47;6.40;99.90
14192;DHT22;7177;48.572;7.838;2022-12-07T12:06:13;6.30;99.90
14192;DHT22;7177;48.572;7.838;2022-12-07T12:08:43;6.20;99.90
14192;DHT22;7177;48.572;7.838;2022-12-07T12:11:40;6.30;99.90
14192;DHT22;7177;48.572;7.838;2022-12-07T12:23:01;6.00;99.90
14192;DHT22;7177;48.572;7.838;2022-12-07T12:25:54;6.00;99.90
14192;DHT22;7177;48.572;7.838;2022-12-07T12:28:32;6.00;99.90
14192;DHT22;7177;48.572;7.838;2022-12-07T12:31:15;5.90;99.90
14192;DHT22;7177;48.572;7.838;2022-12-07T12:33:47;5.90;99.90
14192;DHT22;7177;48.572;7.838;2022-12-07T12:51:59;5.90;99.90
14192;DHT22;7177;48.572;7.838;2022-12-07T12:54:33;6.00;99.90
14192;DHT22;7177;48.572;7.838;2022-12-07T12:57:13;6.00;99.90
14192;DHT22;7177;48.572;7.838;2022-12-07T13:02:33;5.90;99.90
14192;DHT22;7177;48.572;7.838;2022-12-07T13:15:46;5.90;99.90
14192;DHT22;7177;48.572;7.838;2022-12-07T13:21:00;5.90;99.90
14192;DHT22;7177;48.572;7.838;2022-12-07T13:26:19;5.90;99.90
14192;DHT22;7177;48.572;7.838;2022-12-07T13:29:14;5.90;99.90
14192;DHT22;7177;48.572;7.838;2022-12-07T13:31:55;5.90;99.90
14192;DHT22;7177;48.572;7.838;2022-12-07T13:34:34;5.90;99.90
14192;DHT22;7177;48.572;7.838;2022-12-07T13:37:02;5.90;99.90
14192;DHT22;7177;48.572;7.838;2022-12-07T13:39:32;5.90;99.90
14192;DHT22;7177;48.572;7.838;2022-12-07T13:41:59;5.90;99.90
14192;DHT22;7177;48.572;7.838;2022-12-07T13:44:28;5.90;99.90
14192;DHT22;7177;48.572;7.838;2022-12-07T13:47:16;5.90;99.90
14192;DHT22;7177;48.572;7.838;2022-12-07T13:49:54;5.90;99.90
14192;DHT22;7177;48.572;7.838;2022-12-07T13:52:26;5.90;99.90
14192;DHT22;7177;48.572;7.838;2022-12-07T13:57:31;5.80;99.90
14192;DHT22;7177;48.572;7.838;2022-12-07T13:59:59;5.80;99.90
14192;DHT22;7177;48.572;7.838;2022-12-07T14:02:28;5.70;99.90
14192;DHT22;7177;48.572;7.838;2022-12-07T14:05:12;5.70;99.90
14192;DHT22;7177;48.572;7.838;2022-12-07T14:08:05;5.70;99.90
14192;DHT22;7177;48.572;7.838;2022-12-07T14:10:53;5.80;99.90
14192;DHT22;7177;48.572;7.838;2022-12-07T14:13:34;5.80;99.90
14192;DHT22;7177;48.572;7.838;2022-12-07T14:16:04;5.80;99.90
14192;DHT22;7177;48.572;7.838;2022-12-07T14:18:41;5.70;99.90
14192;DHT22;7177;48.572;7.838;2022-12-07T14:21:16;5.60;99.90
14192;DHT22;7177;48.572;7.838;2022-12-07T14:23:43;5.60;99.90
14192;DHT22;7177;48.572;7.838;2022-12-07T14:26:14;5.60;99.90
14192;DHT22;7177;48.572;7.838;2022-12-07T14:28:41;5.70;99.90
14192;DHT22;7177;48.572;7.838;2022-12-07T14:31:18;5.60;99.90
14192;DHT22;7177;48.572;7.838;2022-12-07T14:33:46;5.60;99.90
14192;DHT22;7177;48.572;7.838;2022-12-07T14:36:12;5.50;99.90
14192;DHT22;7177;48.572;7.838;2022-12-07T14:38:38;5.50;99.90
14192;DHT22;7177;48.572;7.838;2022-12-07T14:41:09;5.50;99.90
14192;DHT22;7177;48.572;7.838;2022-12-07T14:43:55;5.50;99.90
14192;DHT22;7177;48.572;7.838;2022-12-07T14:46:21;5.50;99.90
14192;DHT22;7177;48.572;7.838;2022-12-07T14:48:46;5.50;99.90
14192;DHT22;7177;48.572;7.838;2022-12-07T14:51:12;5.50;99.90
14192;DHT22;7177;48.572;7.838;2022-12-07T14:53:44;5.50;99.90
14192;DHT22;7177;48.572;7.838;2022-12-07T14:56:11;5.50;99.90
14192;DHT22;7177;48.572;7.838;2022-12-07T14:58:36;5.50;99.90
14192;DHT22;7177;48.572;7.838;2022-12-07T15:01:02;5.40;99.90
14192;DHT22;7177;48.572;7.838;2022-12-07T15:03:28;5.40;99.90
14192;DHT22;7177;48.572;7.838;2022-12-07T15:05:54;5.40;99.90
14192;DHT22;7177;48.572;7.838;2022-12-07T15:08:20;5.40;99.90
14192;DHT22;7177;48.572;7.838;2022-12-07T15:10:46;5.40;99.90
14192;DHT22;7177;48.572;7.838;2022-12-07T15:13:11;5.40;99.90
14192;DHT22;7177;48.572;7.838;2022-12-07T15:15:55;5.40;99.90
14192;DHT22;7177;48.572;7.838;2022-12-07T15:18:23;5.30;99.90
14192;DHT22;7177;48.572;7.838;2022-12-07T15:20:49;5.30;99.90
14192;DHT22;7177;48.572;7.838;2022-12-07T15:23:15;5.20;99.90
14192;DHT22;7177;48.572;7.838;2022-12-07T15:25:41;5.20;99.90
14192;DHT22;7177;48.572;7.838;2022-12-07T15:28:07;5.20;99.90
14192;DHT22;7177;48.572;7.838;2022-12-07T15:30:32;5.20;99.90
14192;DHT22;7177;48.572;7.838;2022-12-07T15:32:58;5.10;99.90
14192;DHT22;7177;48.572;7.838;2022-12-07T15:35:23;5.10;99.90
14192;DHT22;7177;48.572;7.838;2022-12-07T15:37:49;5.00;99.90
14192;DHT22;7177;48.572;7.838;2022-12-07T15:40:15;5.00;99.90
14192;DHT22;7177;48.572;7.838;2022-12-07T15:42:40;5.00;99.90
14192;DHT22;7177;48.572;7.838;2022-12-07T15:45:07;5.00;99.90
14192;DHT22;7177;48.572;7.838;2022-12-07T15:47:38;5.00;99.90
14192;DHT22;7177;48.572;7.838;2022-12-07T15:50:06;5.00;99.90
14192;DHT22;7177;48.572;7.838;2022-12-07T15:52:33;4.90;99.90
14192;DHT22;7177;48.572;7.838;2022-12-07T15:54:58;5.00;99.90
14192;DHT22;7177;48.572;7.838;2022-12-07T15:57:26;5.00;99.90
14192;DHT22;7177;48.572;7.838;2022-12-07T15:59:52;4.90;99.90
14192;DHT22;7177;48.572;7.838;2022-12-07T16:02:17;4.90;99.90
14192;DHT22;7177;48.572;7.838;2022-12-07T16:04:43;4.90;99.90
14192;DHT22;7177;48.572;7.838;2022-12-07T16:07:08;4.90;99.90
14192;DHT22;7177;48.572;7.838;2022-12-07T16:09:37;4.80;99.90
14192;DHT22;7177;48.572;7.838;2022-12-07T16:12:03;4.90;99.90
14192;DHT22;7177;48.572;7.838;2022-12-07T16:14:28;4.90;99.90
14192;DHT22;7177;48.572;7.838;2022-12-07T16:16:54;4.90;99.90
14192;DHT22;7177;48.572;7.838;2022-12-07T16:19:20;4.80;99.90
14192;DHT22;7177;48.572;7.838;2022-12-07T16:21:46;4.80;99.90
14192;DHT22;7177;48.572;7.838;2022-12-07T16:24:12;4.80;99.90
14192;DHT22;7177;48.572;7.838;2022-12-07T16:26:40;4.80;99.90
14192;DHT22;7177;48.572;7.838;2022-12-07T16:29:05;4.80;99.90
14192;DHT22;7177;48.572;7.838;2022-12-07T16:31:31;4.80;99.90
14192;DHT22;7177;48.572;7.838;2022-12-07T16:33:57;4.80;99.90
14192;DHT22;7177;48.572;7.838;2022-12-07T16:36:24;4.70;99.90
14192;DHT22;7177;48.572;7.838;2022-12-07T16:38:51;4.70;99.90
14192;DHT22;7177;48.572;7.838;2022-12-07T16:41:17;4.70;99.90
14192;DHT22;7177;48.572;7.838;2022-12-07T16:43:43;4.70;99.90
14192;DHT22;7177;48.572;7.838;2022-12-07T16:46:08;4.70;99.90
14192;DHT22;7177;48.572;7.838;2022-12-07T16:48:38;4.70;99.90
14192;DHT22;7177;48.572;7.838;2022-12-07T16:51:12;4.70;99.90
14192;DHT22;7177;48.572;7.838;2022-12-07T16:53:40;4.70;99.90
14192;DHT22;7177;48.572;7.838;2022-12-07T16:56:13;4.70;99.90
14192;DHT22;7177;48.572;7.838;2022-12-07T16:58:42;4.70;99.90
14192;DHT22;7177;48.572;7.838;2022-12-07T17:01:12;4.70;99.90
14192;DHT22;7177;48.572;7.838;2022-12-07T17:03:38;4.70;99.90
14192;DHT22;7177;48.572;7.838;2022-12-07T17:06:12;4.70;99.90
14192;DHT22;7177;48.572;7.838;2022-12-07T17:08:38;4.70;99.90
14192;DHT22;7177;48.572;7.838;2022-12-07T17:11:15;4.70;99.90
14192;DHT22;7177;48.572;7.838;2022-12-07T17:13:42;4.70;99.90
14192;DHT22;7177;48.572;7.838;2022-12-07T17:16:26;4.70;99.90
14192;DHT22;7177;48.572;7.838;2022-12-07T17:18:52;4.70;99.90
14192;DHT22;7177;48.572;7.838;2022-12-07T17:21:17;4.80;99.90
14192;DHT22;7177;48.572;7.838;2022-12-07T17:23:43;4.80;99.90
14192;DHT22;7177;48.572;7.838;2022-12-07T17:26:15;4.80;99.90
14192;DHT22;7177;48.572;7.838;2022-12-07T17:28:41;4.90;99.90
14192;DHT22;7177;48.572;7.838;2022-12-07T17:31:09;4.90;99.90
14192;DHT22;7177;48.572;7.838;2022-12-07T17:33:36;4.90;99.90
14192;DHT22;7177;48.572;7.838;2022-12-07T17:36:09;4.90;99.90
14192;DHT22;7177;48.572;7.838;2022-12-07T17:38:35;4.80;99.90
14192;DHT22;7177;48.572;7.838;2022-12-07T17:41:09;4.80;99.90
14192;DHT22;7177;48.572;7.838;2022-12-07T17:43:35;4.80;99.90
14192;DHT22;7177;48.572;7.838;2022-12-07T17:46:06;4.90;99.90
14192;DHT22;7177;48.572;7.838;2022-12-07T17:48:32;4.90;99.90
14192;DHT22;7177;48.572;7.838;2022-12-07T17:51:01;4.90;99.90
14192;DHT22;7177;48.572;7.838;2022-12-07T17:53:49;4.90;99.90
14192;DHT22;7177;48.572;7.838;2022-12-07T17:56:16;5.00;99.90
14192;DHT22;7177;48.572;7.838;2022-12-07T17:58:42;4.90;99.90
14192;DHT22;7177;48.572;7.838;2022-12-07T18:01:08;4.90;99.90
14192;DHT22;7177;48.572;7.838;2022-12-07T18:03:34;4.80;99.90
14192;DHT22;7177;48.572;7.838;2022-12-07T18:06:00;4.80;99.90
14192;DHT22;7177;48.572;7.838;2022-12-07T18:08:25;4.80;99.90
14192;DHT22;7177;48.572;7.838;2022-12-07T18:10:57;4.70;99.90
14192;DHT22;7177;48.572;7.838;2022-12-07T18:13:23;4.70;99.90